Time;durP1;ratioP1;P1;durP2;ratioP2;P2;SDS_P1;SDS_P2;PMS_P1;PMS_P2;Temp;Humidity;BMP_temperature;BMP_pressure;BME280_temperature;BME280_humidity;BME280_pressure;Samples;Min_cycle;Max_cycle;Signal;HPM_P1;HPM_P2
2021/06/27 00:00:38;;;;;;;5.50;5.10;;;22.00;78.50;;;;;;5051655;28;20169;-79
2021/06/27 00:03:05;;;;;;;6.83;6.23;;;21.90;79.20;;;;;;5056374;28;20635;-81
2021/06/27 00:05:32;;;;;;;5.70;4.80;;;21.90;79.80;;;;;;5069862;28;20586;-81
2021/06/27 00:07:58;;;;;;;5.83;5.30;;;21.90;80.50;;;;;;5068456;28;20583;-81
2021/06/27 00:10:27;;;;;;;5.70;5.10;;;21.80;81.80;;;;;;5068420;28;20594;-81
2021/06/27 00:12:54;;;;;;;6.27;5.67;;;21.80;81.70;;;;;;5068933;28;20596;-81
2021/06/27 00:15:27;;;;;;;7.37;6.67;;;21.70;82.10;;;;;;5069158;28;20599;-81
2021/06/27 00:17:54;;;;;;;6.60;5.80;;;21.70;83.10;;;;;;5066708;28;20571;-81
2021/06/27 00:20:24;;;;;;;5.83;5.30;;;21.70;83.60;;;;;;5025503;28;20944;-81
2021/06/27 00:22:50;;;;;;;7.00;6.30;;;21.60;84.40;;;;;;5058270;28;20635;-81
2021/06/27 00:25:18;;;;;;;7.73;6.00;;;21.60;84.70;;;;;;5068315;28;20579;-81
2021/06/27 00:27:49;;;;;;;7.00;6.30;;;21.50;85.30;;;;;;5049903;28;20578;-81
2021/06/27 00:30:17;;;;;;;6.70;6.10;;;21.50;86.30;;;;;;5066988;28;20564;-81
2021/06/27 00:32:44;;;;;;;7.13;6.27;;;21.50;86.40;;;;;;5064063;28;20675;-81
2021/06/27 00:35:11;;;;;;;7.40;6.60;;;21.50;87.00;;;;;;5063760;28;20647;-80
2021/06/27 00:37:40;;;;;;;7.10;6.37;;;21.50;87.70;;;;;;5063849;28;20576;-80
2021/06/27 00:40:09;;;;;;;6.47;5.77;;;21.40;88.40;;;;;;5063145;28;20663;-80
2021/06/27 00:42:34;;;;;;;8.43;6.80;;;21.40;88.90;;;;;;5066303;28;20607;-80
2021/06/27 00:45:01;;;;;;;6.30;5.63;;;21.40;89.30;;;;;;5068456;28;20567;-81
2021/06/27 00:47:32;;;;;;;8.80;7.30;;;21.40;89.90;;;;;;5068622;28;20193;-81
2021/06/27 00:49:58;;;;;;;7.37;6.57;;;21.30;90.10;;;;;;5068669;28;20563;-80
2021/06/27 00:52:25;;;;;;;6.30;5.70;;;21.30;90.40;;;;;;5068126;28;20587;-81
2021/06/27 00:54:52;;;;;;;6.93;6.23;;;21.30;90.60;;;;;;5068832;28;20554;-81
2021/06/27 00:57:18;;;;;;;7.70;7.00;;;21.30;90.80;;;;;;5059050;28;20586;-80
2021/06/27 00:59:44;;;;;;;6.77;6.17;;;21.30;91.10;;;;;;5061230;28;20606;-79
2021/06/27 01:02:10;;;;;;;6.33;5.73;;;21.20;91.20;;;;;;5074217;28;20568;-80
2021/06/27 01:04:39;;;;;;;7.57;6.87;;;21.20;91.50;;;;;;5075659;28;20205;-79
2021/06/27 01:07:06;;;;;;;7.30;6.70;;;21.20;92.00;;;;;;5075714;28;20583;-80
2021/06/27 01:09:32;;;;;;;7.93;7.27;;;21.20;92.10;;;;;;5074655;28;20575;-80
2021/06/27 01:11:59;;;;;;;6.93;6.23;;;21.20;92.30;;;;;;5075104;28;20576;-80
2021/06/27 01:14:24;;;;;;;7.20;6.60;;;21.10;92.50;;;;;;5074822;28;21002;-80
2021/06/27 01:16:50;;;;;;;6.93;6.33;;;21.10;92.80;;;;;;5074591;28;20571;-80
2021/06/27 01:19:16;;;;;;;6.90;6.30;;;21.10;93.00;;;;;;5074844;28;20199;-80
2021/06/27 01:21:42;;;;;;;7.43;6.73;;;21.00;93.30;;;;;;5075134;28;20606;-80
2021/06/27 01:24:08;;;;;;;6.43;5.77;;;21.00;93.60;;;;;;5073520;28;20208;-80
2021/06/27 01:26:34;;;;;;;7.80;7.10;;;21.00;94.00;;;;;;5074702;28;20629;-80
2021/06/27 01:29:00;;;;;;;7.63;6.93;;;21.00;94.20;;;;;;5057100;28;20582;-81
2021/06/27 01:31:27;;;;;;;7.37;6.70;;;21.00;94.40;;;;;;5075519;28;20708;-80
2021/06/27 01:33:56;;;;;;;7.20;6.60;;;20.90;94.70;;;;;;5032606;28;20662;-80
2021/06/27 01:36:22;;;;;;;7.00;6.40;;;20.90;95.00;;;;;;5046458;28;20579;-80
2021/06/27 01:38:49;;;;;;;7.00;6.40;;;20.90;95.20;;;;;;5073528;28;20575;-80
2021/06/27 01:41:15;;;;;;;6.67;6.07;;;20.90;95.40;;;;;;5074545;28;20574;-80
2021/06/27 01:43:41;;;;;;;7.60;6.87;;;20.80;95.50;;;;;;5074627;28;20822;-80
2021/06/27 01:46:07;;;;;;;6.00;5.50;;;20.80;95.80;;;;;;5075505;28;20635;-80
2021/06/27 01:48:33;;;;;;;6.57;5.97;;;20.80;96.00;;;;;;5058284;28;20236;-80
2021/06/27 01:51:02;;;;;;;7.13;5.93;;;20.80;96.20;;;;;;5074401;28;20169;-80
2021/06/27 01:53:31;;;;;;;6.23;5.70;;;20.80;96.40;;;;;;5075045;28;20587;-81
2021/06/27 01:56:04;;;;;;;6.60;6.10;;;20.80;96.60;;;;;;5077227;28;20556;-81
2021/06/27 01:58:46;;;;;;;6.23;5.63;;;20.70;96.70;;;;;;5076535;28;20594;-81
2021/06/27 02:01:26;;;;;;;6.37;5.80;;;20.70;97.10;;;;;;5079010;28;20785;-81
2021/06/27 02:03:52;;;;;;;7.10;6.17;;;20.70;97.20;;;;;;5044456;28;20646;-81
2021/06/27 02:06:22;;;;;;;5.97;5.47;;;20.80;97.30;;;;;;5078824;28;20563;-80
2021/06/27 02:08:49;;;;;;;5.37;4.97;;;20.80;97.60;;;;;;5059349;28;20583;-80
2021/06/27 02:11:18;;;;;;;6.43;5.83;;;20.70;98.10;;;;;;5047108;28;20568;-80
2021/06/27 02:13:43;;;;;;;6.73;6.13;;;20.70;98.00;;;;;;5068291;28;20614;-80
2021/06/27 02:16:09;;;;;;;6.17;5.60;;;20.70;98.20;;;;;;5070982;28;20568;-80
2021/06/27 02:18:38;;;;;;;6.00;5.50;;;20.70;98.50;;;;;;5072387;28;20172;-80
2021/06/27 02:21:18;;;;;;;6.60;6.00;;;20.70;98.80;;;;;;5065115;28;20590;-81
2021/06/27 02:23:45;;;;;;;6.50;5.90;;;20.70;99.30;;;;;;5063830;28;20661;-80
2021/06/27 02:26:10;;;;;;;5.80;5.40;;;20.60;99.10;;;;;;5064924;28;20564;-81
2021/06/27 02:28:36;;;;;;;6.30;5.80;;;20.60;99.40;;;;;;5056232;28;20570;-80
2021/06/27 02:31:05;;;;;;;7.57;6.87;;;20.60;99.60;;;;;;5074150;28;20192;-79
2021/06/27 02:33:31;;;;;;;6.73;6.13;;;20.60;99.90;;;;;;5034162;28;21052;-79
2021/06/27 02:35:58;;;;;;;6.87;6.27;;;20.60;99.90;;;;;;5041917;28;20672;-79
2021/06/27 02:38:25;;;;;;;5.80;5.40;;;20.50;99.90;;;;;;5058695;28;20579;-79
2021/06/27 02:40:51;;;;;;;7.20;6.70;;;20.50;99.90;;;;;;5058484;28;20595;-80
2021/06/27 02:43:18;;;;;;;5.70;5.20;;;20.50;99.90;;;;;;5057773;28;20631;-79
2021/06/27 02:45:45;;;;;;;5.97;5.40;;;20.50;99.90;;;;;;5057376;28;20568;-79
2021/06/27 02:48:12;;;;;;;5.90;5.40;;;20.40;99.90;;;;;;5057347;28;20602;-79
2021/06/27 02:50:39;;;;;;;6.10;5.50;;;20.40;99.90;;;;;;5061777;28;20625;-79
2021/06/27 02:53:06;;;;;;;6.83;6.23;;;20.40;99.90;;;;;;5039320;28;20993;-80
2021/06/27 02:55:32;;;;;;;7.90;7.20;;;20.40;99.90;;;;;;5048253;28;20583;-79
2021/06/27 02:57:58;;;;;;;6.67;6.07;;;20.40;99.90;;;;;;5073387;28;21301;-79
2021/06/27 03:00:23;;;;;;;7.80;6.57;;;20.40;99.90;;;;;;5073584;28;20552;-79
2021/06/27 03:02:50;;;;;;;8.30;5.67;;;20.40;99.90;;;;;;5039892;28;20208;-79
2021/06/27 03:05:16;;;;;;;7.33;6.73;;;20.30;99.90;;;;;;5073886;28;20180;-79
2021/06/27 03:07:43;;;;;;;6.17;5.67;;;20.30;99.90;;;;;;5072556;28;20629;-80
2021/06/27 03:10:14;;;;;;;6.20;5.70;;;20.30;99.90;;;;;;5055682;28;20563;-80
2021/06/27 03:12:50;;;;;;;6.67;5.97;;;20.30;99.90;;;;;;5055741;28;20626;-80
2021/06/27 03:15:21;;;;;;;6.13;5.57;;;20.30;99.90;;;;;;5056103;28;20575;-80
2021/06/27 03:17:47;;;;;;;5.73;5.20;;;20.40;99.90;;;;;;5072128;28;20595;-80
2021/06/27 03:20:15;;;;;;;6.70;6.10;;;20.30;99.90;;;;;;5072537;28;20595;-80
2021/06/27 03:22:41;;;;;;;6.40;5.80;;;20.30;99.90;;;;;;5068343;28;20596;-80
2021/06/27 03:25:09;;;;;;;8.40;6.50;;;20.40;99.90;;;;;;5055411;28;20691;-80
2021/06/27 03:27:35;;;;;;;6.53;5.93;;;20.40;99.90;;;;;;5073085;28;20575;-80
2021/06/27 03:30:02;;;;;;;6.77;6.17;;;20.50;99.90;;;;;;5071893;28;20604;-80
2021/06/27 03:32:28;;;;;;;6.33;5.80;;;20.50;99.90;;;;;;5071837;28;21040;-80
2021/06/27 03:34:54;;;;;;;6.20;5.70;;;20.50;99.90;;;;;;5054937;28;20611;-80
2021/06/27 03:37:19;;;;;;;6.57;5.87;;;20.60;99.90;;;;;;5054804;28;20172;-79
2021/06/27 03:39:45;;;;;;;6.20;5.50;;;20.70;99.90;;;;;;5072668;28;20244;-80
2021/06/27 03:42:11;;;;;;;5.17;4.77;;;20.70;99.90;;;;;;5074016;28;20176;-81
2021/06/27 03:44:37;;;;;;;7.23;5.60;;;20.80;99.90;;;;;;5073544;28;20703;-81
2021/06/27 03:47:03;;;;;;;5.73;5.20;;;20.90;99.90;;;;;;5039841;28;20586;-80
2021/06/27 03:49:29;;;;;;;5.70;5.20;;;21.00;99.90;;;;;;5056564;28;20246;-80
2021/06/27 03:51:54;;;;;;;6.70;6.10;;;21.10;99.90;;;;;;5074168;28;20559;-80
2021/06/27 03:54:20;;;;;;;6.00;5.50;;;21.20;99.90;;;;;;5074775;28;20169;-80
2021/06/27 03:56:46;;;;;;;7.80;6.67;;;21.20;99.90;;;;;;5072386;28;20169;-81
2021/06/27 03:59:12;;;;;;;6.03;5.53;;;21.20;99.90;;;;;;5060126;28;20180;-80
2021/06/27 04:01:38;;;;;;;6.77;6.20;;;21.20;99.90;;;;;;5055910;28;20571;-80
2021/06/27 04:04:04;;;;;;;5.37;4.97;;;21.20;99.90;;;;;;5065301;28;20220;-81
2021/06/27 04:06:29;;;;;;;5.47;5.03;;;21.10;99.90;;;;;;5062982;28;20579;-81
2021/06/27 04:08:55;;;;;;;5.80;5.30;;;21.20;99.90;;;;;;5061468;28;20963;-81
2021/06/27 04:11:21;;;;;;;6.33;5.73;;;21.10;99.90;;;;;;5042914;28;20180;-81
2021/06/27 04:13:47;;;;;;;6.37;5.80;;;21.10;99.90;;;;;;5060778;28;20691;-81
2021/06/27 04:16:13;;;;;;;5.70;5.10;;;21.10;99.90;;;;;;5058156;28;20543;-81
2021/06/27 04:18:40;;;;;;;6.13;5.53;;;21.10;99.90;;;;;;5059460;28;20567;-81
2021/06/27 04:21:06;;;;;;;6.67;6.10;;;21.10;99.90;;;;;;5041298;28;20591;-81
2021/06/27 04:23:35;;;;;;;4.73;4.40;;;21.00;99.90;;;;;;5041736;28;20681;-80
2021/06/27 04:26:01;;;;;;;6.17;5.67;;;21.10;99.90;;;;;;5058559;28;20607;-80
2021/06/27 04:28:27;;;;;;;6.23;5.27;;;21.10;99.90;;;;;;5057422;28;20567;-81
2021/06/27 04:30:53;;;;;;;5.30;4.83;;;21.10;99.90;;;;;;5057670;28;20580;-81
2021/06/27 04:33:19;;;;;;;5.00;4.60;;;21.20;99.90;;;;;;5022998;28;20207;-81
2021/06/27 04:35:44;;;;;;;5.60;5.13;;;21.20;99.90;;;;;;5023719;28;20188;-80
2021/06/27 04:38:14;;;;;;;5.90;5.40;;;21.30;99.90;;;;;;5059489;28;20169;-81
2021/06/27 04:40:40;;;;;;;5.60;5.10;;;21.40;99.90;;;;;;5063361;28;20568;-81
2021/06/27 04:43:06;;;;;;;5.63;5.23;;;21.40;99.90;;;;;;5059433;28;20658;-81
2021/06/27 04:45:33;;;;;;;6.50;5.90;;;21.50;99.90;;;;;;5057855;28;20580;-80
2021/06/27 04:48:00;;;;;;;5.70;5.20;;;21.50;99.90;;;;;;5056985;28;21018;-80
2021/06/27 04:50:26;;;;;;;5.60;5.10;;;21.60;99.90;;;;;;5040123;28;20590;-80
2021/06/27 04:52:52;;;;;;;6.43;5.13;;;21.60;99.90;;;;;;5054545;28;20623;-80
2021/06/27 04:55:19;;;;;;;5.30;4.90;;;21.70;99.90;;;;;;5075737;28;20173;-81
2021/06/27 04:57:45;;;;;;;5.50;5.07;;;21.70;99.90;;;;;;5076410;28;20597;-80
2021/06/27 05:00:11;;;;;;;5.53;5.03;;;21.80;99.90;;;;;;5075823;28;20571;-81
2021/06/27 05:02:40;;;;;;;5.63;5.20;;;21.80;99.90;;;;;;5052446;28;20636;-81
2021/06/27 05:05:06;;;;;;;6.17;5.67;;;21.90;99.90;;;;;;5072073;28;20960;-80
2021/06/27 05:07:32;;;;;;;6.80;6.20;;;21.90;99.90;;;;;;5074614;28;20556;-81
2021/06/27 05:09:58;;;;;;;5.70;5.17;;;21.90;99.90;;;;;;5056439;28;20631;-80
2021/06/27 05:12:25;;;;;;;5.60;5.10;;;22.00;99.90;;;;;;5052106;28;20189;-81
2021/06/27 05:14:51;;;;;;;6.57;5.47;;;22.00;99.90;;;;;;5063531;28;20390;-81
2021/06/27 05:17:16;;;;;;;6.20;5.70;;;22.00;99.90;;;;;;5060269;28;20559;-81
2021/06/27 05:19:42;;;;;;;5.67;5.23;;;22.00;99.90;;;;;;5076643;28;20571;-81
2021/06/27 05:22:08;;;;;;;5.00;4.60;;;22.10;99.90;;;;;;5059082;28;20180;-81
2021/06/27 05:24:34;;;;;;;5.60;5.10;;;22.20;99.90;;;;;;5076008;28;20204;-81
2021/06/27 05:26:59;;;;;;;5.10;4.60;;;22.30;99.90;;;;;;5058507;28;20169;-81
2021/06/27 05:29:25;;;;;;;5.63;5.13;;;22.40;99.90;;;;;;5076938;28;20578;-81
2021/06/27 05:31:51;;;;;;;5.47;5.07;;;22.50;99.90;;;;;;5076093;28;20161;-81
2021/06/27 05:34:16;;;;;;;6.00;5.50;;;22.60;99.90;;;;;;5076120;28;20647;-81
2021/06/27 05:36:42;;;;;;;5.60;5.10;;;22.70;99.90;;;;;;5076864;28;20176;-80
2021/06/27 05:39:10;;;;;;;9.93;5.67;;;22.90;99.90;;;;;;5075725;28;20172;-81
2021/06/27 05:41:37;;;;;;;5.90;5.43;;;23.10;99.90;;;;;;5076142;28;20203;-80
2021/06/27 05:44:04;;;;;;;6.77;6.07;;;23.30;99.90;;;;;;5075707;28;20646;-80
2021/06/27 05:46:30;;;;;;;5.73;5.30;;;23.50;99.90;;;;;;5074957;28;20572;-81
2021/06/27 05:48:56;;;;;;;7.10;5.80;;;23.70;99.90;;;;;;5058875;28;20572;-80
2021/06/27 05:51:22;;;;;;;5.33;4.83;;;24.00;99.90;;;;;;5072849;28;20180;-80
2021/06/27 05:53:49;;;;;;;5.20;4.63;;;24.30;99.90;;;;;;5075866;28;20200;-81
2021/06/27 05:56:18;;;;;;;5.67;4.67;;;24.80;99.90;;;;;;5073460;28;20644;-81
2021/06/27 05:58:45;;;;;;;5.17;4.67;;;25.50;99.90;;;;;;5067285;28;20210;-79
2021/06/27 06:01:12;;;;;;;6.27;5.27;;;26.30;99.90;;;;;;5062703;28;20580;-79
2021/06/27 06:03:39;;;;;;;4.63;4.23;;;26.80;99.90;;;;;;5053288;28;20692;-80
2021/06/27 06:06:11;;;;;;;4.97;4.60;;;27.10;99.90;;;;;;5087595;22;21080;-84
2021/06/27 06:08:43;;;;;;;5.27;4.87;;;27.60;99.90;;;;;;5024640;28;20588;-83
2021/06/27 06:11:10;;;;;;;4.70;4.30;;;27.90;99.80;;;;;;5017292;28;20572;-83
2021/06/27 06:13:40;;;;;;;4.50;4.20;;;28.00;99.00;;;;;;5024565;28;20581;-84
2021/06/27 06:16:06;;;;;;;5.33;4.80;;;28.10;98.20;;;;;;5001997;28;20634;-83
2021/06/27 06:18:33;;;;;;;4.37;3.97;;;28.20;96.90;;;;;;5010920;28;20635;-81
2021/06/27 06:21:03;;;;;;;4.90;3.60;;;28.20;96.90;;;;;;5025378;28;20595;-81
2021/06/27 06:23:29;;;;;;;7.30;4.87;;;28.40;96.40;;;;;;5011764;28;20670;-82
2021/06/27 06:25:55;;;;;;;4.77;4.37;;;28.70;96.60;;;;;;5023346;28;21194;-81
2021/06/27 06:28:21;;;;;;;4.47;4.17;;;28.90;96.10;;;;;;5010374;28;20588;-84
2021/06/27 06:30:47;;;;;;;4.17;3.87;;;29.40;96.00;;;;;;5010608;28;21123;-85
2021/06/27 06:33:13;;;;;;;3.93;3.63;;;29.70;95.20;;;;;;5030587;28;20609;-84
2021/06/27 06:35:45;;;;;;;5.40;4.57;;;29.90;94.20;;;;;;5012390;28;20625;-85
2021/06/27 06:38:13;;;;;;;4.43;4.13;;;29.90;93.40;;;;;;5015344;28;21167;-83
2021/06/27 06:40:40;;;;;;;4.43;4.13;;;30.00;93.00;;;;;;5014127;28;21128;-84
2021/06/27 06:43:08;;;;;;;4.47;3.97;;;30.00;92.40;;;;;;4995689;28;20628;-81
2021/06/27 06:45:34;;;;;;;4.90;4.50;;;29.80;91.40;;;;;;5013092;28;20977;-83
2021/06/27 06:48:01;;;;;;;4.83;4.37;;;29.50;91.10;;;;;;5028130;28;21147;-82
2021/06/27 06:50:27;;;;;;;4.50;4.20;;;29.20;90.50;;;;;;5013497;28;20610;-83
2021/06/27 06:52:53;;;;;;;5.27;4.87;;;28.90;90.40;;;;;;4995724;28;20593;-84
2021/06/27 06:55:22;;;;;;;4.73;4.43;;;28.60;90.50;;;;;;5012160;28;20182;-83
2021/06/27 06:57:49;;;;;;;4.93;4.53;;;28.40;90.80;;;;;;5011574;28;20657;-83
2021/06/27 07:00:16;;;;;;;4.10;3.77;;;28.30;90.90;;;;;;5013189;28;20565;-83
2021/06/27 07:02:44;;;;;;;4.63;4.23;;;28.10;91.00;;;;;;5013033;28;20569;-82
2021/06/27 07:05:11;;;;;;;5.20;4.70;;;28.10;91.30;;;;;;4995254;28;20627;-82
2021/06/27 07:07:41;;;;;;;4.97;4.57;;;28.00;91.40;;;;;;5011891;28;20569;-82
2021/06/27 07:10:07;;;;;;;4.67;4.27;;;28.00;91.70;;;;;;4978653;28;21120;-83
2021/06/27 07:12:34;;;;;;;4.97;4.57;;;28.20;92.00;;;;;;4995170;28;20973;-82
2021/06/27 07:15:00;;;;;;;4.80;4.40;;;28.50;92.10;;;;;;5012601;28;20603;-84
2021/06/27 07:17:30;;;;;;;5.17;4.77;;;28.60;92.10;;;;;;4979790;28;20601;-84
2021/06/27 07:19:57;;;;;;;4.43;4.00;;;28.80;91.60;;;;;;4995284;28;20680;-83
2021/06/27 07:22:25;;;;;;;4.57;4.27;;;28.80;91.60;;;;;;5011831;28;20573;-83
2021/06/27 07:24:51;;;;;;;4.93;4.43;;;28.80;91.10;;;;;;5014748;28;20629;-85
2021/06/27 07:27:19;;;;;;;3.83;3.53;;;28.90;91.20;;;;;;4996888;28;20182;-81
2021/06/27 07:29:49;;;;;;;5.47;3.77;;;28.90;91.20;;;;;;5012214;28;20558;-82
2021/06/27 07:32:14;;;;;;;4.10;3.80;;;29.20;91.40;;;;;;4994880;28;20566;-80
2021/06/27 07:34:41;;;;;;;4.33;4.03;;;29.50;91.50;;;;;;5012398;28;20616;-80
2021/06/27 07:37:07;;;;;;;7.27;4.57;;;30.00;91.80;;;;;;4994857;28;20174;-81
2021/06/27 07:39:33;;;;;;;4.40;4.07;;;30.50;91.20;;;;;;5012552;28;20631;-80
2021/06/27 07:41:59;;;;;;;4.20;3.90;;;31.10;91.10;;;;;;5012235;28;20569;-80
2021/06/27 07:44:24;;;;;;;4.27;3.97;;;31.90;90.80;;;;;;5012095;28;20198;-81
2021/06/27 07:46:50;;;;;;;4.03;3.73;;;32.30;87.70;;;;;;5012191;28;20247;-81
2021/06/27 07:49:16;;;;;;;3.63;3.33;;;32.60;84.60;;;;;;5011053;28;20177;-81
2021/06/27 07:51:41;;;;;;;4.40;4.10;;;32.80;81.60;;;;;;5027592;28;20536;-81
2021/06/27 07:54:07;;;;;;;3.13;2.83;;;32.90;78.70;;;;;;5012242;28;20183;-81
2021/06/27 07:56:33;;;;;;;3.80;3.60;;;33.00;78.30;;;;;;4994556;28;20202;-81
2021/06/27 07:58:59;;;;;;;3.40;3.20;;;33.20;77.40;;;;;;5012159;28;20167;-81
2021/06/27 08:01:24;;;;;;;3.00;2.80;;;33.40;75.90;;;;;;5012092;28;20203;-80
2021/06/27 08:03:51;;;;;;;3.97;3.67;;;33.40;75.20;;;;;;5011823;28;20208;-81
2021/06/27 08:06:17;;;;;;;4.33;3.97;;;33.40;73.60;;;;;;4994177;28;20720;-81
2021/06/27 08:08:46;;;;;;;4.07;3.77;;;33.40;73.20;;;;;;5011770;28;20574;-82
2021/06/27 08:11:11;;;;;;;3.47;3.17;;;33.60;71.80;;;;;;5017270;28;20563;-81
2021/06/27 08:13:37;;;;;;;4.07;3.77;;;33.90;72.60;;;;;;5033920;28;20574;-81
2021/06/27 08:16:03;;;;;;;3.60;3.30;;;34.30;72.20;;;;;;5018266;28;20300;-81
2021/06/27 08:18:29;;;;;;;3.53;3.23;;;34.70;72.80;;;;;;5000691;28;20177;-82
2021/06/27 08:20:55;;;;;;;3.00;2.80;;;35.10;69.90;;;;;;5017147;28;20603;-82
2021/06/27 08:23:24;;;;;;;3.40;3.10;;;35.40;69.00;;;;;;5018251;28;20252;-82
2021/06/27 08:25:53;;;;;;;3.03;2.83;;;35.40;67.20;;;;;;5033089;28;20644;-82
2021/06/27 08:28:18;;;;;;;3.10;2.90;;;35.70;66.40;;;;;;5000301;28;20623;-81
2021/06/27 08:30:44;;;;;;;3.37;3.07;;;35.80;65.20;;;;;;5000613;28;20251;-80
2021/06/27 08:33:10;;;;;;;3.10;2.90;;;36.10;63.20;;;;;;5016913;28;20577;-79
2021/06/27 08:35:36;;;;;;;2.80;2.60;;;36.30;62.50;;;;;;5000321;28;20194;-81
2021/06/27 08:38:02;;;;;;;3.17;2.93;;;36.50;62.80;;;;;;5016760;28;20170;-80
2021/06/27 08:40:28;;;;;;;3.00;2.80;;;36.80;60.70;;;;;;5018042;28;20903;-80
2021/06/27 08:42:56;;;;;;;3.57;3.27;;;36.80;59.00;;;;;;5016940;28;20619;-80
2021/06/27 08:45:25;;;;;;;3.23;3.03;;;36.50;56.50;;;;;;5000395;28;20269;-80
2021/06/27 08:47:53;;;;;;;3.10;2.80;;;36.50;56.80;;;;;;4983883;28;20568;-80
2021/06/27 08:50:20;;;;;;;3.60;3.00;;;36.40;56.10;;;;;;5000772;28;20587;-80
2021/06/27 08:52:46;;;;;;;2.83;2.63;;;36.10;56.30;;;;;;5017899;28;20648;-81
2021/06/27 08:55:14;;;;;;;3.07;2.70;;;36.10;56.00;;;;;;5032961;28;20608;-80
2021/06/27 08:57:40;;;;;;;3.60;3.30;;;35.90;55.60;;;;;;5016732;28;20576;-81
2021/06/27 09:00:08;;;;;;;3.90;3.07;;;35.90;55.80;;;;;;5000231;28;20816;-81
2021/06/27 09:02:34;;;;;;;3.40;3.10;;;35.70;54.70;;;;;;5018078;28;20569;-81
2021/06/27 09:05:00;;;;;;;3.53;3.00;;;35.50;54.70;;;;;;4983505;28;20676;-81
2021/06/27 09:07:39;;;;;;;3.87;3.57;;;35.80;55.60;;;;;;5000193;28;20205;-80
2021/06/27 09:10:19;;;;;;;2.70;2.50;;;35.80;54.60;;;;;;5000077;28;20174;-81
2021/06/27 09:12:48;;;;;;;3.87;2.93;;;35.90;54.80;;;;;;5017981;28;20572;-82
2021/06/27 09:15:36;;;;;;;3.00;2.70;;;35.90;55.90;;;;;;5017629;28;20588;-81
2021/06/27 09:18:22;;;;;;;2.83;2.63;;;36.30;52.80;;;;;;5017639;28;20573;-80
2021/06/27 09:20:57;;;;;;;3.33;3.03;;;36.60;53.90;;;;;;5032192;28;21003;-80
2021/06/27 09:23:44;;;;;;;3.13;2.17;;;36.70;54.10;;;;;;5013992;28;20627;-80
2021/06/27 09:26:10;;;;;;;2.80;2.60;;;37.20;56.10;;;;;;5006488;28;20624;-81
2021/06/27 09:28:47;;;;;;;2.60;2.40;;;37.80;54.70;;;;;;5014222;28;20591;-80
2021/06/27 09:31:40;;;;;;;2.70;2.50;;;38.10;54.30;;;;;;5014284;28;21335;-81
2021/06/27 09:34:13;;;;;;;2.93;2.63;;;38.60;52.20;;;;;;5028504;28;20645;-80
2021/06/27 09:36:53;;;;;;;4.20;2.90;;;38.90;51.30;;;;;;5033807;28;20595;-80
2021/06/27 09:39:19;;;;;;;3.33;3.03;;;39.10;51.50;;;;;;5015897;28;20932;-80
2021/06/27 09:41:50;;;;;;;6.13;2.77;;;39.30;50.60;;;;;;5025472;28;20687;-82
2021/06/27 09:44:17;;;;;;;2.83;2.63;;;39.60;51.20;;;;;;5014125;28;20627;-81
2021/06/27 09:46:51;;;;;;;2.73;1.93;;;40.20;50.60;;;;;;5013883;28;21187;-80
2021/06/27 09:49:29;;;;;;;2.73;2.53;;;40.60;50.10;;;;;;5012792;28;20903;-80
2021/06/27 09:51:56;;;;;;;2.23;2.03;;;41.00;45.50;;;;;;5012862;28;20626;-80
2021/06/27 09:54:24;;;;;;;2.27;1.87;;;41.30;47.00;;;;;;4996418;28;20910;-79
2021/06/27 09:56:51;;;;;;;2.27;2.17;;;41.40;47.10;;;;;;5013815;28;21183;-79
2021/06/27 09:59:31;;;;;;;2.33;2.23;;;41.70;45.90;;;;;;5015774;28;21151;-79
2021/06/27 10:01:58;;;;;;;2.47;2.27;;;41.80;44.20;;;;;;5033719;28;20944;-80
2021/06/27 10:04:35;;;;;;;2.37;2.17;;;41.80;44.70;;;;;;5017386;28;20623;-80
2021/06/27 10:07:03;;;;;;;1.90;1.80;;;41.90;45.60;;;;;;5033456;28;20584;-80
2021/06/27 10:09:31;;;;;;;1.90;1.80;;;42.00;42.80;;;;;;5015662;28;20898;-80
2021/06/27 10:12:08;;;;;;;2.97;2.77;;;41.80;43.20;;;;;;5033470;28;20576;-82
2021/06/27 10:14:49;;;;;;;2.33;1.87;;;41.90;42.40;;;;;;5033336;28;20579;-81
2021/06/27 10:17:19;;;;;;;2.30;2.10;;;41.80;42.60;;;;;;5033151;28;20575;-81
2021/06/27 10:19:46;;;;;;;1.80;1.53;;;41.80;42.40;;;;;;5032965;28;20981;-81
2021/06/27 10:22:12;;;;;;;2.20;2.00;;;42.00;43.50;;;;;;5015653;28;20626;-81
2021/06/27 10:24:38;;;;;;;1.77;1.67;;;42.30;43.70;;;;;;5015579;28;20727;-79
2021/06/27 10:27:05;;;;;;;1.90;1.80;;;42.50;42.10;;;;;;5015224;28;20173;-80
2021/06/27 10:29:32;;;;;;;2.20;2.00;;;42.40;40.90;;;;;;5015144;28;20172;-81
2021/06/27 10:31:58;;;;;;;2.37;2.17;;;42.20;40.70;;;;;;5015478;28;20610;-81
2021/06/27 10:34:24;;;;;;;2.37;2.17;;;41.90;39.80;;;;;;5010099;28;20608;-80
2021/06/27 10:36:56;;;;;;;1.67;1.57;;;41.80;40.20;;;;;;5002524;28;20714;-80
2021/06/27 10:39:24;;;;;;;1.80;1.70;;;41.40;39.10;;;;;;4997127;28;21204;-81
2021/06/27 10:42:02;;;;;;;2.40;2.20;;;41.00;39.00;;;;;;4986485;28;20637;-82
2021/06/27 10:44:37;;;;;;;2.33;2.13;;;40.50;39.50;;;;;;5013604;28;20979;-82
2021/06/27 10:47:03;;;;;;;2.47;2.27;;;40.40;40.90;;;;;;5008792;28;20581;-81
2021/06/27 10:49:32;;;;;;;2.47;2.20;;;40.00;39.70;;;;;;4995751;28;20604;-80
2021/06/27 10:52:09;;;;;;;2.27;2.07;;;39.50;39.90;;;;;;5011217;28;20691;-78
2021/06/27 10:54:39;;;;;;;1.80;1.70;;;39.10;40.30;;;;;;5018543;28;20669;-78
2021/06/27 10:57:07;;;;;;;1.70;1.60;;;38.80;40.80;;;;;;5009917;28;20719;-79
2021/06/27 10:59:38;;;;;;;2.23;1.90;;;38.70;41.20;;;;;;5012335;28;20930;-81
2021/06/27 11:02:14;;;;;;;2.63;1.90;;;38.60;41.50;;;;;;4995097;28;20679;-80
2021/06/27 11:04:43;;;;;;;2.00;1.90;;;38.70;42.10;;;;;;5010900;28;20640;-80
2021/06/27 11:07:36;;;;;;;2.60;2.03;;;38.80;42.00;;;;;;5011821;28;20596;-80
2021/06/27 11:10:22;;;;;;;2.10;1.87;;;38.70;40.90;;;;;;5008953;28;20590;-78
2021/06/27 11:13:06;;;;;;;3.50;2.60;;;38.40;41.00;;;;;;4955137;28;20601;-80
2021/06/27 11:15:32;;;;;;;2.77;2.53;;;37.90;41.00;;;;;;5012121;28;20711;-80
2021/06/27 11:18:09;;;;;;;2.70;2.50;;;37.50;41.10;;;;;;4992995;28;20724;-79
2021/06/27 11:20:47;;;;;;;2.90;2.40;;;37.20;42.10;;;;;;5006872;28;20679;-80
2021/06/27 11:23:13;;;;;;;2.20;2.00;;;37.30;42.80;;;;;;5011967;28;20627;-80
2021/06/27 11:25:41;;;;;;;2.20;2.00;;;37.50;43.50;;;;;;4995028;28;21056;-80
2021/06/27 11:30:52;;;;;;;2.50;2.30;;;37.90;43.90;;;;;;5012056;28;20616;-82
2021/06/27 11:33:21;;;;;;;4.37;1.90;;;38.00;42.80;;;;;;5012006;28;20596;-81
2021/06/27 11:35:53;;;;;;;1.93;1.83;;;37.80;42.50;;;;;;5011886;28;20655;-79
2021/06/27 11:38:43;;;;;;;2.67;2.47;;;37.70;42.50;;;;;;5011404;28;20581;-79
2021/06/27 11:41:10;;;;;;;3.17;2.40;;;37.70;42.70;;;;;;4994435;28;20612;-78
2021/06/27 11:44:08;;;;;;;2.40;2.20;;;37.60;42.70;;;;;;4994535;28;21073;-80
2021/06/27 11:46:42;;;;;;;2.50;2.30;;;37.40;43.00;;;;;;5011731;28;20600;-81
2021/06/27 11:49:09;;;;;;;2.80;2.60;;;37.20;42.80;;;;;;5012105;28;20565;-80
2021/06/27 11:51:36;;;;;;;2.40;2.20;;;36.90;42.80;;;;;;4978673;28;20903;-81
2021/06/27 11:54:04;;;;;;;2.23;2.03;;;36.50;42.80;;;;;;5015012;28;20564;-81
2021/06/27 11:57:04;;;;;;;3.00;2.40;;;36.30;43.00;;;;;;5011759;28;20597;-81
2021/06/27 11:59:38;;;;;;;2.53;2.20;;;36.00;42.80;;;;;;4994105;28;20576;-81
2021/06/27 12:02:12;;;;;;;2.13;1.93;;;35.70;43.20;;;;;;5011483;28;20595;-81
2021/06/27 12:04:50;;;;;;;2.80;2.40;;;35.50;43.60;;;;;;5011844;28;21213;-82
2021/06/27 12:07:33;;;;;;;2.23;2.03;;;35.30;44.50;;;;;;5011809;28;21263;-78
2021/06/27 12:10:11;;;;;;;1.63;1.50;;;35.00;43.60;;;;;;4994015;28;20607;-78
2021/06/27 12:12:57;;;;;;;2.00;1.73;;;34.80;43.60;;;;;;5011796;28;20580;-79
2021/06/27 12:15:22;;;;;;;3.50;1.87;;;34.60;43.60;;;;;;4994220;28;20598;-79
2021/06/27 12:18:01;;;;;;;2.40;2.20;;;34.40;43.70;;;;;;4993756;28;20568;-80
2021/06/27 12:20:29;;;;;;;2.80;2.20;;;34.20;44.10;;;;;;5011630;28;20669;-79
2021/06/27 12:22:59;;;;;;;2.93;2.63;;;34.20;44.40;;;;;;4994015;28;20584;-79
2021/06/27 12:25:41;;;;;;;3.20;3.00;;;34.10;44.70;;;;;;5011444;28;21025;-78
2021/06/27 12:28:13;;;;;;;2.73;2.53;;;33.90;44.90;;;;;;5011453;28;20565;-79
2021/06/27 12:30:47;;;;;;;3.37;3.10;;;33.80;44.80;;;;;;4999935;28;20953;-77
2021/06/27 12:33:16;;;;;;;2.60;2.20;;;33.70;45.00;;;;;;5011796;28;20629;-78
2021/06/27 12:35:44;;;;;;;2.37;2.17;;;33.50;45.10;;;;;;4993751;28;20662;-78
2021/06/27 12:38:10;;;;;;;2.43;2.23;;;33.40;45.50;;;;;;4993688;28;20571;-78
2021/06/27 12:40:42;;;;;;;2.13;1.90;;;33.30;45.60;;;;;;5010086;28;20618;-78
2021/06/27 12:43:26;;;;;;;3.30;2.63;;;33.30;46.00;;;;;;5011588;28;20579;-79
2021/06/27 12:46:11;;;;;;;4.43;2.40;;;33.20;46.30;;;;;;4993742;28;21005;-79
2021/06/27 12:48:36;;;;;;;2.80;2.60;;;33.10;46.70;;;;;;4993461;28;20895;-78
2021/06/27 12:51:22;;;;;;;3.77;2.13;;;33.00;46.40;;;;;;5011359;28;20554;-79
2021/06/27 12:54:00;;;;;;;4.93;1.70;;;33.00;46.60;;;;;;4977829;28;21184;-78
2021/06/27 12:56:50;;;;;;;2.70;2.50;;;33.10;46.60;;;;;;4995002;28;20601;-79
2021/06/27 12:59:18;;;;;;;3.00;2.70;;;33.00;46.90;;;;;;5014927;28;20901;-79